createdAt,value
2016-10-25T00:00:21.440Z,0
2016-10-25T00:01:21.453Z,0
2016-10-25T00:02:21.789Z,0
2016-10-25T00:03:21.496Z,0
2016-10-25T00:04:21.489Z,0
2016-10-25T00:05:21.530Z,0
2016-10-25T00:06:21.523Z,0
2016-10-25T00:07:21.530Z,0
2016-10-25T00:08:21.577Z,0
2016-10-25T00:09:21.576Z,0
2016-10-25T00:10:21.634Z,0
2016-10-25T00:11:21.596Z,0
2016-10-25T00:12:21.633Z,0
2016-10-25T00:13:21.641Z,0
2016-10-25T00:14:21.649Z,0
2016-10-25T00:15:21.684Z,0
2016-10-25T00:16:21.689Z,0
2016-10-25T00:17:21.684Z,0
2016-10-25T00:18:21.730Z,0
2016-10-25T00:19:21.727Z,0
2016-10-25T00:20:21.769Z,0
2016-10-25T00:21:21.779Z,0
2016-10-25T00:22:21.793Z,0
2016-10-25T00:23:21.838Z,0
2016-10-25T00:24:21.835Z,0
2016-10-25T00:25:21.844Z,0
2016-10-25T00:26:21.877Z,0
2016-10-25T00:27:21.874Z,0
2016-10-25T00:28:21.899Z,0
2016-10-25T00:29:21.915Z,0
2016-10-25T00:30:21.937Z,0
2016-10-25T00:31:21.942Z,0
2016-10-25T00:32:21.961Z,0
2016-10-25T00:33:21.975Z,0
2016-10-25T00:34:21.986Z,0
2016-10-25T00:35:21.999Z,0
2016-10-25T00:36:22.036Z,0
2016-10-25T00:37:22.045Z,0
2016-10-25T00:38:22.054Z,0
2016-10-25T00:39:22.075Z,0
2016-10-25T00:40:22.092Z,0
2016-10-25T00:41:22.146Z,0
2016-10-25T00:42:22.124Z,0
2016-10-25T00:43:22.142Z,0
2016-10-25T00:44:22.152Z,0
2016-10-25T00:45:22.175Z,0
2016-10-25T00:46:22.187Z,0
2016-10-25T00:47:22.209Z,0
2016-10-25T00:48:22.220Z,0
2016-10-25T00:49:22.239Z,0
2016-10-25T00:50:22.252Z,0
2016-10-25T00:51:22.262Z,0
2016-10-25T00:52:22.290Z,0
2016-10-25T00:53:22.304Z,0
2016-10-25T00:54:22.321Z,0
2016-10-25T00:55:22.341Z,0
2016-10-25T00:56:22.349Z,0
2016-10-25T00:57:22.376Z,0
2016-10-25T00:58:22.372Z,0
2016-10-25T00:59:22.416Z,0
2016-10-25T01:00:22.416Z,0
2016-10-25T01:01:22.419Z,0
2016-10-25T01:02:22.462Z,0
2016-10-25T01:03:22.517Z,0
2016-10-25T01:04:22.506Z,0
2016-10-25T01:05:22.508Z,0
2016-10-25T01:06:22.531Z,0
2016-10-25T01:07:22.556Z,0
2016-10-25T01:08:22.557Z,0
2016-10-25T01:09:22.576Z,0
2016-10-25T01:10:22.578Z,0
2016-10-25T01:11:22.624Z,0
2016-10-25T01:12:22.633Z,0
2016-10-25T01:13:22.623Z,0
2016-10-25T01:14:22.694Z,0
2016-10-25T01:15:22.681Z,0
2016-10-25T01:16:22.722Z,0
2016-10-25T01:17:22.710Z,0
2016-10-25T01:18:22.723Z,0
2016-10-25T01:19:22.724Z,0
2016-10-25T01:20:22.754Z,0
2016-10-25T01:21:22.772Z,0
2016-10-25T01:22:22.802Z,0
2016-10-25T01:23:22.804Z,0
2016-10-25T01:24:22.838Z,0
2016-10-25T01:25:22.853Z,0
2016-10-25T01:26:22.868Z,0
2016-10-25T01:27:22.861Z,0
2016-10-25T01:28:22.895Z,0
2016-10-25T01:29:22.936Z,0
2016-10-25T01:30:22.965Z,0
2016-10-25T01:31:22.931Z,0
2016-10-25T01:32:22.962Z,0
2016-10-25T01:33:22.980Z,0
2016-10-25T01:34:22.994Z,0
2016-10-25T01:35:22.995Z,0
2016-10-25T01:36:23.031Z,0
2016-10-25T01:37:23.053Z,0
2016-10-25T01:38:23.073Z,0
2016-10-25T01:39:23.085Z,0
2016-10-25T01:40:23.109Z,0
2016-10-25T01:41:23.107Z,0
2016-10-25T01:42:23.109Z,0
2016-10-25T01:43:23.138Z,0
2016-10-25T01:44:23.173Z,0
2016-10-25T01:45:23.179Z,0
2016-10-25T01:46:23.199Z,0
2016-10-25T01:47:23.258Z,0
2016-10-25T01:48:23.193Z,0
2016-10-25T01:49:23.241Z,0
2016-10-25T01:50:23.260Z,0
2016-10-25T01:51:23.278Z,0
2016-10-25T01:52:23.309Z,0
2016-10-25T01:53:23.322Z,0
2016-10-25T01:54:23.327Z,0
2016-10-25T01:55:23.351Z,0
2016-10-25T01:56:23.359Z,0
2016-10-25T01:57:23.379Z,0
2016-10-25T01:58:23.424Z,0
2016-10-25T01:59:23.416Z,0
2016-10-25T02:00:23.429Z,0
2016-10-25T02:01:23.446Z,0
2016-10-25T02:02:23.470Z,0
2016-10-25T02:03:23.472Z,0
2016-10-25T02:04:23.497Z,0
2016-10-25T02:05:23.530Z,0
2016-10-25T02:06:23.550Z,0
2016-10-25T02:07:23.549Z,0
2016-10-25T02:08:23.565Z,0
2016-10-25T02:09:23.602Z,0
2016-10-25T02:10:23.584Z,0
2016-10-25T02:11:23.611Z,0
2016-10-25T02:12:23.975Z,0
2016-10-25T02:13:23.638Z,0
2016-10-25T02:14:23.679Z,0
2016-10-25T02:15:23.670Z,0
2016-10-25T02:16:23.743Z,0
2016-10-25T02:17:23.714Z,0
2016-10-25T02:18:23.733Z,0
2016-10-25T02:19:23.783Z,0
2016-10-25T02:20:23.730Z,0
2016-10-25T02:21:23.800Z,0
2016-10-25T02:22:23.793Z,0
2016-10-25T02:23:23.799Z,0
2016-10-25T02:24:23.828Z,0
2016-10-25T02:25:23.847Z,0
2016-10-25T02:26:23.860Z,0
2016-10-25T02:27:23.893Z,0
2016-10-25T02:28:23.902Z,0
2016-10-25T02:29:23.931Z,0
2016-10-25T02:30:23.928Z,0
2016-10-25T02:31:23.954Z,0
2016-10-25T02:32:23.954Z,0
2016-10-25T02:33:23.997Z,0
2016-10-25T02:34:23.993Z,0
2016-10-25T02:35:24.022Z,0
2016-10-25T02:36:24.027Z,0
2016-10-25T02:37:24.040Z,0
2016-10-25T02:38:24.080Z,0
2016-10-25T02:39:24.087Z,0
2016-10-25T02:40:24.089Z,0
2016-10-25T02:41:24.159Z,0
2016-10-25T02:42:24.131Z,0
2016-10-25T02:43:24.161Z,0
2016-10-25T02:44:24.174Z,0
2016-10-25T02:45:24.201Z,0
2016-10-25T02:46:24.215Z,0
2016-10-25T02:47:24.225Z,0
2016-10-25T02:48:24.241Z,0
2016-10-25T02:49:24.285Z,0
2016-10-25T02:50:24.265Z,0
2016-10-25T02:51:24.290Z,0
2016-10-25T02:52:24.309Z,0
2016-10-25T02:53:24.329Z,0
2016-10-25T02:54:24.327Z,0
2016-10-25T02:55:24.372Z,0
2016-10-25T02:56:24.380Z,0
2016-10-25T02:57:24.364Z,0
2016-10-25T02:58:24.412Z,0
2016-10-25T02:59:24.433Z,0
2016-10-25T03:00:24.445Z,0
2016-10-25T03:01:24.477Z,0
2016-10-25T03:02:24.480Z,0
2016-10-25T03:03:24.498Z,0
2016-10-25T03:04:24.514Z,0
2016-10-25T03:05:24.526Z,0
2016-10-25T03:06:24.536Z,0
2016-10-25T03:07:24.561Z,0
2016-10-25T03:08:24.574Z,0
2016-10-25T03:09:24.603Z,0
2016-10-25T03:10:24.618Z,0
2016-10-25T03:11:24.652Z,0
2016-10-25T03:12:24.646Z,0
2016-10-25T03:13:24.654Z,0
2016-10-25T03:14:24.680Z,0
2016-10-25T03:15:24.708Z,0
2016-10-25T03:16:24.717Z,0
2016-10-25T03:17:24.734Z,0
2016-10-25T03:18:24.752Z,0
2016-10-25T03:19:24.781Z,0
2016-10-25T03:20:24.785Z,0
2016-10-25T03:21:24.829Z,0
2016-10-25T03:22:24.832Z,0
2016-10-25T03:23:24.830Z,0
2016-10-25T03:24:24.866Z,0
2016-10-25T03:25:24.870Z,0
2016-10-25T03:26:24.872Z,0
2016-10-25T03:27:24.916Z,0
2016-10-25T03:28:24.901Z,0
2016-10-25T03:29:24.928Z,0
2016-10-25T03:30:24.965Z,0
2016-10-25T03:31:24.983Z,0
2016-10-25T03:32:24.973Z,0
2016-10-25T03:33:25.023Z,0
2016-10-25T03:34:25.009Z,0
2016-10-25T03:35:25.027Z,0
2016-10-25T03:36:25.054Z,0
2016-10-25T03:37:25.086Z,0
2016-10-25T03:38:25.108Z,0
2016-10-25T03:39:25.106Z,0
2016-10-25T03:40:25.113Z,0
2016-10-25T03:41:25.137Z,0
2016-10-25T03:42:25.160Z,0
2016-10-25T03:43:25.189Z,0
2016-10-25T03:44:25.206Z,0
2016-10-25T03:45:25.228Z,0
2016-10-25T03:46:25.207Z,0
2016-10-25T03:47:25.240Z,0
2016-10-25T03:48:25.266Z,0
2016-10-25T03:49:25.289Z,0
2016-10-25T03:50:25.291Z,0
2016-10-25T03:51:25.312Z,0
2016-10-25T03:52:25.333Z,0
2016-10-25T03:53:25.337Z,0
2016-10-25T03:54:25.361Z,0
2016-10-25T03:55:25.391Z,0
2016-10-25T03:56:25.397Z,0
2016-10-25T03:57:25.421Z,0
2016-10-25T03:58:25.442Z,0
2016-10-25T03:59:25.447Z,0
2016-10-25T04:01:25.512Z,0
2016-10-25T04:02:25.485Z,0
2016-10-25T04:03:25.573Z,0
2016-10-25T04:04:25.542Z,0
2016-10-25T04:05:25.556Z,0
2016-10-25T04:06:25.598Z,0
2016-10-25T04:07:25.604Z,0
2016-10-25T04:08:25.608Z,0
2016-10-25T04:09:25.613Z,0
2016-10-25T04:10:25.646Z,0
2016-10-25T04:11:25.647Z,0
2016-10-25T04:12:25.652Z,0
2016-10-25T04:13:25.685Z,0
2016-10-25T04:14:25.713Z,0
2016-10-25T04:15:25.718Z,0
2016-10-25T04:16:25.748Z,0
2016-10-25T04:17:25.776Z,0
2016-10-25T04:18:25.774Z,0
2016-10-25T04:19:25.782Z,0
2016-10-25T04:20:25.829Z,0
2016-10-25T04:21:25.799Z,0
2016-10-25T04:22:25.852Z,0
2016-10-25T04:23:25.876Z,0
2016-10-25T04:24:25.860Z,0
2016-10-25T04:25:25.876Z,0
2016-10-25T04:26:25.919Z,0
2016-10-25T04:27:25.939Z,0
2016-10-25T04:28:25.941Z,0
2016-10-25T04:29:25.964Z,0
2016-10-25T04:30:25.987Z,0
2016-10-25T04:31:26.005Z,0
2016-10-25T04:32:26.022Z,0
2016-10-25T04:33:26.036Z,0
2016-10-25T04:34:26.031Z,0
2016-10-25T04:35:26.049Z,0
2016-10-25T04:36:26.081Z,0
2016-10-25T04:37:26.088Z,0
2016-10-25T04:38:26.170Z,0
2016-10-25T04:39:26.129Z,0
2016-10-25T04:40:26.151Z,0
2016-10-25T04:41:26.174Z,0
2016-10-25T04:42:26.180Z,0
2016-10-25T04:43:26.239Z,0
2016-10-25T04:44:26.226Z,0
2016-10-25T04:45:26.230Z,0
2016-10-25T04:46:26.251Z,0
2016-10-25T04:47:26.307Z,0
2016-10-25T04:48:26.311Z,0
2016-10-25T04:49:26.291Z,0
2016-10-25T04:50:26.328Z,0
2016-10-25T04:51:26.342Z,0
2016-10-25T04:52:26.367Z,0
2016-10-25T04:53:26.368Z,0
2016-10-25T04:54:26.415Z,0
2016-10-25T04:55:26.401Z,0
2016-10-25T04:56:26.431Z,0
2016-10-25T04:57:26.440Z,0
2016-10-25T04:58:26.472Z,0
2016-10-25T04:59:26.441Z,0
2016-10-25T05:00:26.492Z,0
2016-10-25T05:01:26.481Z,0
2016-10-25T05:02:26.521Z,0
2016-10-25T05:03:26.553Z,0
2016-10-25T05:04:26.562Z,0
2016-10-25T05:05:26.570Z,0
2016-10-25T05:06:26.589Z,0
2016-10-25T05:07:26.614Z,0
2016-10-25T05:08:26.640Z,0
2016-10-25T05:09:26.642Z,0
2016-10-25T05:10:26.643Z,0
2016-10-25T05:11:26.686Z,0
2016-10-25T05:12:26.691Z,0
2016-10-25T05:13:26.709Z,0
2016-10-25T05:14:26.717Z,0
2016-10-25T05:15:26.734Z,0
2016-10-25T05:16:26.767Z,0
2016-10-25T05:17:26.766Z,0
2016-10-25T05:18:26.782Z,0
2016-10-25T05:19:26.815Z,0
2016-10-25T05:20:26.812Z,0
2016-10-25T05:21:26.845Z,0
2016-10-25T05:22:26.879Z,0
2016-10-25T05:23:26.887Z,0
2016-10-25T05:24:26.895Z,0
2016-10-25T05:25:26.909Z,0
2016-10-25T05:26:26.939Z,0
2016-10-25T05:27:26.948Z,0
2016-10-25T05:28:26.972Z,0
2016-10-25T05:29:26.980Z,0
2016-10-25T05:30:26.998Z,0
2016-10-25T05:31:27.012Z,0
2016-10-25T05:32:27.018Z,0
2016-10-25T05:33:27.060Z,0
2016-10-25T05:34:27.067Z,0
2016-10-25T05:35:27.093Z,0
2016-10-25T05:36:27.104Z,0
2016-10-25T05:37:27.096Z,0
2016-10-25T05:38:27.135Z,0
2016-10-25T05:39:27.138Z,0
2016-10-25T05:40:27.151Z,0
2016-10-25T05:41:27.177Z,0
2016-10-25T05:42:27.190Z,0
2016-10-25T05:43:27.224Z,0
2016-10-25T05:44:27.227Z,0
2016-10-25T05:45:27.253Z,0
2016-10-25T05:46:27.272Z,0
2016-10-25T05:47:27.256Z,0
2016-10-25T05:48:27.284Z,0
2016-10-25T05:49:27.335Z,0
2016-10-25T05:50:27.335Z,0
2016-10-25T05:51:27.355Z,0
2016-10-25T05:52:27.375Z,0
2016-10-25T05:53:27.380Z,0
2016-10-25T05:54:27.402Z,0
2016-10-25T05:55:27.422Z,0
2016-10-25T05:56:27.431Z,0
2016-10-25T05:57:27.476Z,0
2016-10-25T05:58:27.459Z,0
2016-10-25T05:59:27.501Z,0
2016-10-25T06:00:27.503Z,0
2016-10-25T06:01:27.515Z,0
2016-10-25T06:02:27.533Z,0
2016-10-25T06:03:27.541Z,0
2016-10-25T06:04:27.568Z,0
2016-10-25T06:05:27.584Z,0
2016-10-25T06:06:27.583Z,0
2016-10-25T06:07:27.632Z,0
2016-10-25T06:08:27.635Z,0
2016-10-25T06:09:27.660Z,0
2016-10-25T06:10:27.678Z,0
2016-10-25T06:11:27.670Z,0
2016-10-25T06:12:27.691Z,0
2016-10-25T06:13:27.724Z,0
2016-10-25T06:14:27.711Z,0
2016-10-25T06:15:27.760Z,0
2016-10-25T06:16:27.755Z,0
2016-10-25T06:17:27.786Z,0
2016-10-25T06:18:27.795Z,0
2016-10-25T06:19:27.818Z,0
2016-10-25T06:20:27.851Z,0
2016-10-25T06:21:27.848Z,0
2016-10-25T06:22:27.870Z,0
2016-10-25T06:23:27.892Z,0
2016-10-25T06:24:27.917Z,0
2016-10-25T06:25:27.918Z,0
2016-10-25T06:26:27.927Z,0
2016-10-25T06:27:27.964Z,0
2016-10-25T06:28:27.986Z,0
2016-10-25T06:29:28.009Z,0
2016-10-25T06:30:28.008Z,0
2016-10-25T06:31:28.019Z,0
2016-10-25T06:32:28.033Z,0
2016-10-25T06:33:28.060Z,0
2016-10-25T06:34:28.082Z,0
2016-10-25T06:35:28.091Z,0
2016-10-25T06:36:28.110Z,0
2016-10-25T06:37:28.118Z,0
2016-10-25T06:38:28.135Z,0
2016-10-25T06:39:28.164Z,0
2016-10-25T06:40:28.177Z,0
2016-10-25T06:41:28.179Z,0
2016-10-25T06:42:28.210Z,0
2016-10-25T06:43:28.259Z,0
2016-10-25T06:44:28.269Z,0
2016-10-25T06:45:28.261Z,0
2016-10-25T06:46:28.256Z,0
2016-10-25T06:47:28.280Z,0
2016-10-25T06:48:28.290Z,0
2016-10-25T06:49:28.329Z,0
2016-10-25T06:50:28.328Z,0
2016-10-25T06:51:28.369Z,5
2016-10-25T06:52:28.386Z,5
2016-10-25T06:53:28.376Z,0
2016-10-25T06:54:28.387Z,0
2016-10-25T06:55:28.425Z,0
2016-10-25T06:56:28.479Z,0
2016-10-25T06:57:28.453Z,0
2016-10-25T06:58:28.478Z,0
2016-10-25T06:59:28.498Z,0
2016-10-25T07:00:28.522Z,5
2016-10-25T07:01:28.564Z,0
2016-10-25T07:02:28.528Z,0
2016-10-25T07:03:28.538Z,5
2016-10-25T07:04:28.565Z,5
2016-10-25T07:05:28.596Z,5
2016-10-25T07:06:28.656Z,5
2016-10-25T07:07:28.634Z,5
2016-10-25T07:08:28.648Z,5
2016-10-25T07:09:28.656Z,5
2016-10-25T07:10:28.674Z,5
2016-10-25T07:11:28.694Z,5
2016-10-25T07:12:28.701Z,5
2016-10-25T07:13:28.733Z,5
2016-10-25T07:14:28.746Z,5
2016-10-25T07:15:28.769Z,5
2016-10-25T07:16:28.783Z,5
2016-10-25T07:17:28.796Z,10
2016-10-25T07:18:28.821Z,10
2016-10-25T07:19:28.839Z,10
2016-10-25T07:20:28.861Z,10
2016-10-25T07:21:28.845Z,10
2016-10-25T07:22:28.946Z,5
2016-10-25T07:23:28.915Z,5
2016-10-25T07:24:28.961Z,10
2016-10-25T07:25:28.954Z,5
2016-10-25T07:26:28.955Z,10
2016-10-25T07:27:28.963Z,10
2016-10-25T07:28:28.998Z,10
2016-10-25T07:29:29.002Z,10
2016-10-25T07:30:29.015Z,5
2016-10-25T07:31:29.048Z,5
2016-10-25T07:32:29.037Z,5
2016-10-25T07:33:29.061Z,5
2016-10-25T07:34:29.097Z,5
2016-10-25T07:35:29.166Z,5
2016-10-25T07:36:29.121Z,5
2016-10-25T07:37:29.147Z,5
2016-10-25T07:38:29.144Z,5
2016-10-25T07:39:29.175Z,5
2016-10-25T07:40:29.173Z,5
2016-10-25T07:41:29.228Z,5
2016-10-25T07:42:29.275Z,5
2016-10-25T07:43:29.276Z,5
2016-10-25T07:44:29.278Z,5
2016-10-25T07:45:29.291Z,5
2016-10-25T07:46:29.285Z,5
2016-10-25T07:47:29.309Z,5
2016-10-25T07:48:29.364Z,5
2016-10-25T07:49:29.328Z,10
2016-10-25T07:50:29.361Z,10
2016-10-25T07:51:29.390Z,10
2016-10-25T07:52:29.406Z,10
2016-10-25T07:53:29.403Z,10
2016-10-25T07:54:29.480Z,10
2016-10-25T07:55:29.480Z,10
2016-10-25T07:56:29.504Z,10
2016-10-25T07:57:29.488Z,10
2016-10-25T07:58:29.485Z,10
2016-10-25T07:59:29.508Z,10
2016-10-25T08:00:29.530Z,10
2016-10-25T08:01:29.544Z,10
2016-10-25T08:02:29.570Z,15
2016-10-25T08:03:29.585Z,15
2016-10-25T08:04:29.616Z,15
2016-10-25T08:05:29.617Z,15
2016-10-25T08:06:29.627Z,15
2016-10-25T08:07:29.651Z,15
2016-10-25T08:08:29.665Z,15
2016-10-25T08:09:29.681Z,15
2016-10-25T08:10:29.709Z,15
2016-10-25T08:11:29.725Z,20
2016-10-25T08:12:30.216Z,15
2016-10-25T08:13:29.761Z,15
2016-10-25T08:14:29.750Z,15
2016-10-25T08:15:29.779Z,15
2016-10-25T08:16:29.798Z,15
2016-10-25T08:17:29.806Z,15
2016-10-25T08:18:29.832Z,15
2016-10-25T08:19:29.866Z,15
2016-10-25T08:20:29.875Z,15
2016-10-25T08:21:29.896Z,15
2016-10-25T08:22:29.907Z,10
2016-10-25T08:23:29.928Z,10
2016-10-25T08:24:29.935Z,10
2016-10-25T08:25:29.941Z,10
2016-10-25T08:26:29.971Z,15
2016-10-25T08:27:29.983Z,15
2016-10-25T08:28:30.001Z,10
2016-10-25T08:29:30.030Z,15
2016-10-25T08:30:30.027Z,15
2016-10-25T08:31:30.064Z,15
2016-10-25T08:32:30.063Z,15
2016-10-25T08:33:30.107Z,15
2016-10-25T08:34:30.100Z,15
2016-10-25T08:35:30.112Z,15
2016-10-25T08:36:30.135Z,10
2016-10-25T08:37:30.162Z,10
2016-10-25T08:38:30.170Z,15
2016-10-25T08:39:30.197Z,15
2016-10-25T08:40:30.210Z,10
2016-10-25T08:41:30.236Z,10
2016-10-25T08:42:30.246Z,15
2016-10-25T08:43:30.253Z,15
2016-10-25T08:44:30.322Z,15
2016-10-25T08:45:30.283Z,15
2016-10-25T08:46:30.312Z,10
2016-10-25T08:47:30.320Z,10
2016-10-25T08:48:30.354Z,10
2016-10-25T08:49:30.367Z,10
2016-10-25T08:50:30.379Z,10
2016-10-25T08:51:30.393Z,10
2016-10-25T08:52:30.416Z,10
2016-10-25T08:53:30.429Z,10
2016-10-25T08:54:30.450Z,15
2016-10-25T08:55:30.450Z,10
2016-10-25T08:56:30.485Z,10
2016-10-25T08:57:30.528Z,15
2016-10-25T08:58:30.502Z,15
2016-10-25T08:59:30.545Z,20
2016-10-25T09:00:30.535Z,20
2016-10-25T09:01:30.567Z,20
2016-10-25T09:02:30.597Z,20
2016-10-25T09:03:30.594Z,20
2016-10-25T09:04:30.600Z,20
2016-10-25T09:05:30.621Z,20
2016-10-25T09:06:30.645Z,15
2016-10-25T09:07:30.664Z,15
2016-10-25T09:08:30.672Z,15
2016-10-25T09:09:30.697Z,15
2016-10-25T09:10:30.713Z,15
2016-10-25T09:11:30.735Z,15
2016-10-25T09:12:30.747Z,20
2016-10-25T09:13:30.763Z,20
2016-10-25T09:14:30.786Z,20
2016-10-25T09:15:30.811Z,20
2016-10-25T09:16:30.819Z,20
2016-10-25T09:17:30.824Z,20
2016-10-25T09:18:30.845Z,25
2016-10-25T09:19:30.874Z,35
2016-10-25T09:20:30.869Z,30
2016-10-25T09:21:30.876Z,25
2016-10-25T09:22:30.906Z,25
2016-10-25T09:23:30.942Z,25
2016-10-25T09:24:30.945Z,25
2016-10-25T09:25:30.973Z,25
2016-10-25T09:26:30.991Z,25
2016-10-25T09:27:30.979Z,30
2016-10-25T09:28:31.010Z,30
2016-10-25T09:29:31.024Z,30
2016-10-25T09:30:31.069Z,30
2016-10-25T09:31:31.071Z,30
2016-10-25T09:32:31.079Z,30
2016-10-25T09:33:31.077Z,30
2016-10-25T09:34:31.119Z,25
2016-10-25T09:35:31.122Z,20
2016-10-25T09:36:31.134Z,25
2016-10-25T09:37:31.162Z,25
2016-10-25T09:38:31.190Z,25
2016-10-25T09:39:31.191Z,25
2016-10-25T09:40:31.190Z,25
2016-10-25T09:41:31.206Z,25
2016-10-25T09:42:31.210Z,25
2016-10-25T09:43:31.272Z,25
2016-10-25T09:44:31.269Z,25
2016-10-25T09:45:31.278Z,25
2016-10-25T09:46:31.310Z,25
2016-10-25T09:47:31.305Z,25
2016-10-25T09:48:31.336Z,25
2016-10-25T09:49:31.379Z,25
2016-10-25T09:50:31.371Z,25
2016-10-25T09:51:31.388Z,20
2016-10-25T09:52:31.408Z,20
2016-10-25T09:53:31.432Z,20
2016-10-25T09:54:31.436Z,20
2016-10-25T09:55:31.428Z,20
2016-10-25T09:56:31.489Z,20
2016-10-25T09:57:31.496Z,20
2016-10-25T09:58:31.494Z,20
2016-10-25T09:59:31.500Z,20
2016-10-25T10:00:31.527Z,20
2016-10-25T10:01:31.599Z,20
2016-10-25T10:02:31.568Z,20
2016-10-25T10:03:31.568Z,20
2016-10-25T10:04:31.598Z,20
2016-10-25T10:05:31.647Z,20
2016-10-25T10:06:31.615Z,20
2016-10-25T10:07:31.662Z,15
2016-10-25T10:08:31.667Z,15
2016-10-25T10:09:31.690Z,15
2016-10-25T10:10:31.740Z,15
2016-10-25T10:11:31.723Z,15
2016-10-25T10:12:31.726Z,15
2016-10-25T10:13:31.796Z,15
2016-10-25T10:14:31.742Z,15
2016-10-25T10:15:31.770Z,15
2016-10-25T10:16:31.814Z,15
2016-10-25T10:17:31.827Z,15
2016-10-25T10:18:31.868Z,15
2016-10-25T10:19:31.829Z,15
2016-10-25T10:20:31.891Z,15
2016-10-25T10:21:31.876Z,15
2016-10-25T10:22:31.879Z,15
2016-10-25T10:23:31.946Z,15
2016-10-25T10:24:31.946Z,15
2016-10-25T10:25:31.988Z,15
2016-10-25T10:26:31.970Z,15
2016-10-25T10:27:32.009Z,15
2016-10-25T10:28:32.001Z,15
2016-10-25T10:29:32.016Z,15
2016-10-25T10:30:32.026Z,15
2016-10-25T10:31:32.052Z,15
2016-10-25T10:32:32.060Z,15
2016-10-25T10:33:32.085Z,15
2016-10-25T10:34:32.133Z,15
2016-10-25T10:35:32.107Z,20
2016-10-25T10:36:32.109Z,20
2016-10-25T10:37:32.141Z,25
2016-10-25T10:38:32.166Z,30
2016-10-25T10:39:32.164Z,35
2016-10-25T10:40:32.191Z,35
2016-10-25T10:41:32.214Z,30
2016-10-25T10:42:32.231Z,25
2016-10-25T10:43:32.215Z,25
2016-10-25T10:44:32.276Z,20
2016-10-25T10:45:32.284Z,20
2016-10-25T10:46:32.289Z,20
2016-10-25T10:47:32.320Z,20
2016-10-25T10:48:32.329Z,20
2016-10-25T10:49:32.374Z,20
2016-10-25T10:50:32.379Z,25
2016-10-25T10:51:32.347Z,30
2016-10-25T10:52:32.389Z,30
2016-10-25T10:53:32.406Z,25
2016-10-25T10:54:32.407Z,30
2016-10-25T10:55:32.436Z,30
2016-10-25T10:56:32.462Z,30
2016-10-25T10:57:32.479Z,30
2016-10-25T10:58:32.492Z,35
2016-10-25T10:59:32.499Z,35
2016-10-25T11:00:32.521Z,30
2016-10-25T11:01:32.526Z,30
2016-10-25T11:02:32.552Z,25
2016-10-25T11:03:32.613Z,25
2016-10-25T11:04:32.596Z,25
2016-10-25T11:05:32.599Z,25
2016-10-25T11:06:32.631Z,25
2016-10-25T11:07:32.628Z,25
2016-10-25T11:08:32.647Z,25
2016-10-25T11:09:32.667Z,25
2016-10-25T11:10:32.676Z,25
2016-10-25T11:11:32.707Z,25
2016-10-25T11:12:32.741Z,30
2016-10-25T11:13:32.781Z,35
2016-10-25T11:14:32.749Z,35
2016-10-25T11:15:32.773Z,30
2016-10-25T11:16:32.777Z,35
2016-10-25T11:17:32.785Z,35
2016-10-25T11:18:32.807Z,35
2016-10-25T11:19:32.847Z,40
2016-10-25T11:20:32.835Z,40
2016-10-25T11:21:32.863Z,40
2016-10-25T11:22:32.871Z,35
2016-10-25T11:23:32.900Z,40
2016-10-25T11:24:32.931Z,40
2016-10-25T11:25:32.918Z,40
2016-10-25T11:26:32.941Z,40
2016-10-25T11:27:32.987Z,40
2016-10-25T11:28:33.017Z,40
2016-10-25T11:29:32.984Z,40
2016-10-25T11:30:33.020Z,40
2016-10-25T11:31:33.030Z,40
2016-10-25T11:32:33.055Z,40
2016-10-25T11:33:33.053Z,45
2016-10-25T11:34:33.077Z,40
2016-10-25T11:35:33.094Z,35
2016-10-25T11:36:33.137Z,35
2016-10-25T11:37:33.119Z,35
2016-10-25T11:38:33.140Z,35
2016-10-25T11:39:33.171Z,35
2016-10-25T11:40:33.178Z,35
2016-10-25T11:41:33.208Z,35
2016-10-25T11:42:33.194Z,35
2016-10-25T11:43:33.230Z,35
2016-10-25T11:44:33.235Z,35
2016-10-25T11:45:33.254Z,30
2016-10-25T11:46:33.265Z,30
2016-10-25T11:47:33.291Z,35
2016-10-25T11:48:33.292Z,35
2016-10-25T11:49:33.316Z,40
2016-10-25T11:50:33.389Z,40
2016-10-25T11:51:33.369Z,35
2016-10-25T11:52:33.364Z,30
2016-10-25T11:53:33.389Z,30
2016-10-25T11:54:33.400Z,30
2016-10-25T11:55:33.422Z,25
2016-10-25T11:56:33.429Z,25
2016-10-25T11:57:33.470Z,25
2016-10-25T11:58:33.467Z,25
2016-10-25T11:59:33.475Z,30
2016-10-25T12:00:33.519Z,30
2016-10-25T12:01:33.527Z,30
2016-10-25T12:02:33.542Z,25
2016-10-25T12:03:33.555Z,30
2016-10-25T12:04:33.570Z,25
2016-10-25T12:05:33.595Z,30
2016-10-25T12:06:33.612Z,30
2016-10-25T12:07:33.613Z,30
2016-10-25T12:08:33.638Z,35
2016-10-25T12:09:33.645Z,35
2016-10-25T12:10:33.682Z,40
2016-10-25T12:11:33.688Z,40
2016-10-25T12:12:33.694Z,40
2016-10-25T12:13:33.715Z,40
2016-10-25T12:14:33.744Z,40
2016-10-25T12:15:33.750Z,35
2016-10-25T12:16:33.786Z,30
2016-10-25T12:17:33.807Z,30
2016-10-25T12:18:33.825Z,30
2016-10-25T12:19:33.812Z,30
2016-10-25T12:20:33.874Z,30
2016-10-25T12:21:33.838Z,30
2016-10-25T12:22:33.871Z,30
2016-10-25T12:23:33.873Z,30
2016-10-25T12:24:33.907Z,30
2016-10-25T12:25:33.927Z,30
2016-10-25T12:26:33.940Z,30
2016-10-25T12:27:33.978Z,30
2016-10-25T12:28:33.974Z,30
2016-10-25T12:29:33.980Z,30
2016-10-25T12:30:34.001Z,30
2016-10-25T12:31:34.025Z,30
2016-10-25T12:32:34.044Z,25
2016-10-25T12:33:34.103Z,25
2016-10-25T12:34:34.058Z,25
2016-10-25T12:35:34.086Z,30
2016-10-25T12:36:34.096Z,30
2016-10-25T12:37:34.132Z,25
2016-10-25T12:38:34.144Z,25
2016-10-25T12:39:34.155Z,25
2016-10-25T12:40:34.171Z,25
2016-10-25T12:41:34.184Z,25
2016-10-25T12:42:34.201Z,25
2016-10-25T12:43:34.263Z,25
2016-10-25T12:44:34.251Z,25
2016-10-25T12:45:34.269Z,25
2016-10-25T12:46:34.263Z,25
2016-10-25T12:47:34.271Z,20
2016-10-25T12:48:34.319Z,20
2016-10-25T12:49:34.321Z,20
2016-10-25T12:50:34.341Z,20
2016-10-25T12:51:34.354Z,20
2016-10-25T12:52:34.387Z,20
2016-10-25T12:53:34.393Z,20
2016-10-25T12:54:34.764Z,20
2016-10-25T12:55:34.404Z,20
2016-10-25T12:56:34.443Z,20
2016-10-25T12:57:34.437Z,20
2016-10-25T12:58:34.466Z,20
2016-10-25T12:59:34.472Z,20
2016-10-25T13:00:34.494Z,20
2016-10-25T13:01:34.508Z,15
2016-10-25T13:02:34.535Z,15
2016-10-25T13:03:34.544Z,15
2016-10-25T13:04:34.549Z,15
2016-10-25T13:05:34.590Z,15
2016-10-25T13:06:34.598Z,15
2016-10-25T13:07:34.631Z,15
2016-10-25T13:08:34.625Z,20
2016-10-25T13:09:34.646Z,20
2016-10-25T13:10:34.646Z,25
2016-10-25T13:11:34.677Z,25
2016-10-25T13:12:34.709Z,25
2016-10-25T13:13:34.735Z,25
2016-10-25T13:14:34.726Z,25
2016-10-25T13:15:34.757Z,25
2016-10-25T13:16:34.781Z,20
2016-10-25T13:17:34.783Z,20
2016-10-25T13:18:34.800Z,20
2016-10-25T13:19:34.824Z,20
2016-10-25T13:20:34.881Z,20
2016-10-25T13:21:34.848Z,20
2016-10-25T13:22:34.857Z,20
2016-10-25T13:23:34.870Z,20
2016-10-25T13:24:34.896Z,20
2016-10-25T13:25:34.896Z,20
2016-10-25T13:26:34.980Z,20
2016-10-25T13:27:34.961Z,20
2016-10-25T13:28:34.974Z,20
2016-10-25T13:29:34.983Z,15
2016-10-25T13:30:34.990Z,15
2016-10-25T13:31:35.018Z,20
2016-10-25T13:32:35.078Z,20
2016-10-25T13:33:35.059Z,20
2016-10-25T13:34:35.100Z,15
2016-10-25T13:35:35.083Z,15
2016-10-25T13:36:35.138Z,15
2016-10-25T13:37:35.137Z,15
2016-10-25T13:38:35.138Z,15
2016-10-25T13:39:35.146Z,15
2016-10-25T13:40:35.147Z,15
2016-10-25T13:41:35.174Z,15
2016-10-25T13:42:35.173Z,15
2016-10-25T13:43:35.231Z,15
2016-10-25T13:44:35.221Z,15
2016-10-25T13:45:35.245Z,15
2016-10-25T13:46:35.258Z,15
2016-10-25T13:47:35.287Z,10
2016-10-25T13:48:35.296Z,10
2016-10-25T13:49:35.293Z,10
2016-10-25T13:50:35.338Z,10
2016-10-25T13:51:35.344Z,10
2016-10-25T13:52:35.375Z,10
2016-10-25T13:53:35.363Z,10
2016-10-25T13:54:35.423Z,10
2016-10-25T13:55:35.407Z,10
2016-10-25T13:56:35.421Z,10
2016-10-25T13:57:35.428Z,10
2016-10-25T13:58:35.444Z,10
2016-10-25T13:59:35.480Z,10
2016-10-25T14:00:35.479Z,10
2016-10-25T14:01:35.497Z,10
2016-10-25T14:02:35.522Z,10
2016-10-25T14:03:35.523Z,10
2016-10-25T14:04:35.544Z,10
2016-10-25T14:05:35.564Z,10
2016-10-25T14:06:35.614Z,5
2016-10-25T14:07:35.598Z,5
2016-10-25T14:08:35.629Z,5
2016-10-25T14:09:35.627Z,5
2016-10-25T14:10:35.644Z,5
2016-10-25T14:11:35.666Z,5
2016-10-25T14:12:35.686Z,5
2016-10-25T14:13:35.720Z,10
2016-10-25T14:14:35.718Z,10
2016-10-25T14:15:35.736Z,10
2016-10-25T14:16:35.753Z,10
2016-10-25T14:17:35.768Z,10
2016-10-25T14:18:35.779Z,10
2016-10-25T14:19:35.832Z,10
2016-10-25T14:20:35.813Z,10
2016-10-25T14:21:35.860Z,10
2016-10-25T14:22:35.849Z,10
2016-10-25T14:23:35.860Z,10
2016-10-25T14:24:35.869Z,10
2016-10-25T14:25:35.882Z,10
2016-10-25T14:26:36.104Z,10
2016-10-25T14:27:35.931Z,10
2016-10-25T14:28:35.948Z,10
2016-10-25T14:29:35.979Z,10
2016-10-25T14:30:36.020Z,10
2016-10-25T14:31:36.044Z,10
2016-10-25T14:32:35.991Z,10
2016-10-25T14:33:36.396Z,10